Time;durP1;ratioP1;P1;durP2;ratioP2;P2;SDS_P1;SDS_P2;PMS_P1;PMS_P2;Temp;Humidity;BMP_temperature;BMP_pressure;BME280_temperature;BME280_humidity;BME280_pressure;Samples;Min_cycle;Max_cycle;Signal;HPM_P1;HPM_P2
2022/02/03 00:00:25;;;;;;;22.20;13.70;;;;;;;;;;4966329;28;20482;-77
2022/02/03 00:03:04;;;;;;;20.60;13.17;;;;;;;;;;4987111;28;20556;-76
2022/02/03 00:05:42;;;;;;;27.43;15.80;;;;;;;;;;4989275;28;20890;-77
2022/02/03 00:08:17;;;;;;;25.70;15.40;;;;;;;;;;4987602;28;20546;-76
2022/02/03 00:11:02;;;;;;;22.03;15.10;;;;;;;;;;4968933;28;20479;-77
2022/02/03 00:16:39;;;;;;;23.27;14.50;;;;;;;;;;4989668;28;20447;-76
2022/02/03 00:24:37;;;;;;;20.67;14.23;;;;;;;;;;4989918;28;20459;-76
2022/02/03 00:27:12;;;;;;;22.97;14.40;;;;;;;;;;4992599;28;20487;-77
2022/02/03 00:29:56;;;;;;;19.47;12.90;;;;;;;;;;4992224;28;20473;-77
2022/02/03 00:35:23;;;;;;;18.27;12.23;;;;;;;;;;4993444;28;20436;-77
2022/02/03 00:38:04;;;;;;;18.10;12.70;;;;;;;;;;4994606;28;20486;-77
2022/02/03 00:48:44;;;;;;;19.10;12.07;;;;;;;;;;4991248;28;21019;-77
2022/02/03 00:51:11;;;;;;;15.27;11.23;;;;;;;;;;4991825;28;20467;-77
2022/02/03 00:53:38;;;;;;;16.60;11.97;;;;;;;;;;4992558;28;20470;-76
2022/02/03 00:56:09;;;;;;;16.13;12.00;;;;;;;;;;4991617;28;20463;-77
2022/02/03 00:58:41;;;;;;;20.73;13.57;;;;;;;;;;4962436;28;20429;-78
2022/02/03 01:01:12;;;;;;;19.80;12.23;;;;;;;;;;4977477;28;20468;-77
2022/02/03 01:03:40;;;;;;;24.07;13.83;;;;;;;;;;4991219;28;20441;-77
2022/02/03 01:06:07;;;;;;;18.77;13.97;;;;;;;;;;4989294;28;21011;-76
2022/02/03 01:08:36;;;;;;;19.73;13.20;;;;;;;;;;4990028;28;20489;-76
2022/02/03 01:11:08;;;;;;;18.50;11.00;;;;;;;;;;4989727;28;20492;-76
2022/02/03 01:13:44;;;;;;;15.43;11.23;;;;;;;;;;4990262;28;21706;-76
2022/02/03 01:16:22;;;;;;;14.30;10.80;;;;;;;;;;4960694;28;20439;-76
2022/02/03 01:19:14;;;;;;;16.33;11.53;;;;;;;;;;4980116;28;20427;-77
2022/02/03 01:33:24;;;;;;;16.40;12.07;;;;;;;;;;4991673;28;20447;-76
2022/02/03 01:43:31;;;;;;;18.80;11.83;;;;;;;;;;4987564;28;20872;-76
2022/02/03 01:46:11;;;;;;;20.17;13.40;;;;;;;;;;4988578;28;20491;-76
2022/02/03 01:48:51;;;;;;;16.07;11.43;;;;;;;;;;4989006;28;21019;-76
2022/02/03 01:54:01;;;;;;;16.90;12.00;;;;;;;;;;4976734;28;20430;-77
2022/02/03 01:56:36;;;;;;;17.23;11.70;;;;;;;;;;4986783;28;20805;-77
2022/02/03 01:59:04;;;;;;;16.70;11.87;;;;;;;;;;4988027;28;20879;-76
2022/02/03 02:01:33;;;;;;;16.43;11.77;;;;;;;;;;4971487;28;20873;-76
2022/02/03 02:04:05;;;;;;;17.30;12.87;;;;;;;;;;4990560;28;20794;-76
2022/02/03 02:06:37;;;;;;;18.70;11.37;;;;;;;;;;4972451;28;21004;-76
2022/02/03 02:09:08;;;;;;;16.70;12.00;;;;;;;;;;4983001;28;20818;-77
2022/02/03 02:11:57;;;;;;;16.70;11.40;;;;;;;;;;4977392;28;20467;-76
2022/02/03 02:14:53;;;;;;;14.57;10.93;;;;;;;;;;4985122;28;20444;-77
2022/02/03 02:36:53;;;;;;;13.40;10.50;;;;;;;;;;4988828;28;20523;-76
2022/02/03 02:39:21;;;;;;;12.30;9.57;;;;;;;;;;4969893;28;20479;-77
2022/02/03 02:44:43;;;;;;;14.97;10.50;;;;;;;;;;4974837;28;20446;-76
2022/02/03 02:47:15;;;;;;;14.80;10.80;;;;;;;;;;4988810;28;20498;-76
2022/02/03 02:49:49;;;;;;;13.73;10.90;;;;;;;;;;4977120;28;20471;-77
2022/02/03 02:52:23;;;;;;;14.67;11.60;;;;;;;;;;4957587;28;20440;-76
2022/02/03 02:55:02;;;;;;;14.77;11.13;;;;;;;;;;4970464;28;20873;-76
2022/02/03 03:00:39;;;;;;;13.93;10.03;;;;;;;;;;4968708;28;20460;-76
2022/02/03 03:03:27;;;;;;;14.70;10.80;;;;;;;;;;4975901;28;20460;-77
2022/02/03 03:30:11;;;;;;;10.77;8.83;;;;;;;;;;4978625;28;20487;-76
2022/02/03 03:32:53;;;;;;;11.43;8.60;;;;;;;;;;4989779;28;20451;-77
2022/02/03 03:35:34;;;;;;;12.07;8.73;;;;;;;;;;4989574;28;20444;-77
2022/02/03 03:38:02;;;;;;;13.03;9.17;;;;;;;;;;4988357;28;20476;-77
2022/02/03 03:40:31;;;;;;;13.90;9.97;;;;;;;;;;4989961;28;20830;-76
2022/02/03 03:43:01;;;;;;;10.67;9.37;;;;;;;;;;4974527;28;20514;-77
2022/02/03 03:45:31;;;;;;;11.87;9.00;;;;;;;;;;4987289;28;20467;-76
2022/02/03 03:48:01;;;;;;;11.13;9.23;;;;;;;;;;4976031;28;20516;-76
2022/02/03 03:50:30;;;;;;;11.67;8.90;;;;;;;;;;4958276;28;20535;-77
2022/02/03 03:53:03;;;;;;;12.27;8.30;;;;;;;;;;4973964;28;20472;-77
2022/02/03 03:55:39;;;;;;;10.57;8.43;;;;;;;;;;4983856;28;20459;-77
2022/02/03 03:58:34;;;;;;;15.60;8.87;;;;;;;;;;4992880;28;20526;-76
2022/02/03 04:34:42;;;;;;;7.63;6.40;;;;;;;;;;4991285;28;20440;-76
2022/02/03 04:54:52;;;;;;;10.90;5.87;;;;;;;;;;5003180;28;20801;-77
2022/02/03 04:57:47;;;;;;;10.37;5.97;;;;;;;;;;5002677;28;20443;-77
2022/02/03 05:03:13;;;;;;;10.27;6.40;;;;;;;;;;5055875;28;20789;-76
2022/02/03 05:05:56;;;;;;;8.80;5.30;;;;;;;;;;5081537;28;20449;-76
2022/02/03 05:08:37;;;;;;;11.20;5.97;;;;;;;;;;5127073;28;20441;-76
2022/02/03 05:11:26;;;;;;;9.50;7.00;;;;;;;;;;5125504;27;20861;-76
2022/02/03 05:14:33;;;;;;;8.43;6.53;;;;;;;;;;5122915;27;20472;-76
2022/02/03 05:17:23;;;;;;;12.57;6.53;;;;;;;;;;5105915;28;20507;-76
2022/02/03 05:20:16;;;;;;;10.17;7.43;;;;;;;;;;5063438;27;20841;-77
2022/02/03 05:25:51;;;;;;;7.83;6.57;;;;;;;;;;5125914;28;20477;-77
2022/02/03 05:42:27;;;;;;;12.13;6.43;;;;;;;;;;5068867;28;20511;-77
2022/02/03 05:45:25;;;;;;;7.60;6.53;;;;;;;;;;5086499;28;20481;-77
2022/02/03 05:48:17;;;;;;;10.90;7.93;;;;;;;;;;5032278;28;20954;-76
2022/02/03 06:02:00;;;;;;;11.40;6.73;;;;;;;;;;5054595;28;20910;-77
2022/02/03 06:04:43;;;;;;;9.90;7.87;;;;;;;;;;4994942;28;20495;-77
2022/02/03 06:12:56;;;;;;;8.77;7.27;;;;;;;;;;4998505;28;20521;-76
2022/02/03 06:15:31;;;;;;;11.90;8.20;;;;;;;;;;5008373;28;20447;-76
2022/02/03 06:20:43;;;;;;;11.93;8.80;;;;;;;;;;5021344;28;20482;-76
2022/02/03 06:23:19;;;;;;;15.07;9.20;;;;;;;;;;5051155;28;21087;-77
2022/02/03 06:28:29;;;;;;;14.53;8.73;;;;;;;;;;5000803;28;20845;-77
2022/02/03 06:30:56;;;;;;;10.83;8.73;;;;;;;;;;4987659;28;20484;-76
2022/02/03 06:33:23;;;;;;;12.50;9.80;;;;;;;;;;4998477;28;20481;-75
2022/02/03 06:35:50;;;;;;;15.93;10.67;;;;;;;;;;5008317;28;20443;-76
2022/02/03 06:38:17;;;;;;;13.37;9.73;;;;;;;;;;5006803;28;20480;-75
2022/02/03 06:40:45;;;;;;;15.70;9.97;;;;;;;;;;5007454;28;20447;-76
2022/02/03 06:43:14;;;;;;;12.13;8.60;;;;;;;;;;5032777;28;20443;-76
2022/02/03 06:45:47;;;;;;;12.50;9.30;;;;;;;;;;5053990;28;21088;-76
2022/02/03 06:48:18;;;;;;;15.77;10.37;;;;;;;;;;5024174;28;20428;-76
2022/02/03 06:50:51;;;;;;;18.83;9.90;;;;;;;;;;4994309;28;20482;-75
2022/02/03 06:53:22;;;;;;;12.47;9.43;;;;;;;;;;4992288;28;20859;-76
2022/02/03 06:55:55;;;;;;;16.60;10.50;;;;;;;;;;4993204;28;20818;-76
2022/02/03 06:58:27;;;;;;;15.00;11.03;;;;;;;;;;5006543;28;20439;-76
2022/02/03 07:01:02;;;;;;;17.77;11.10;;;;;;;;;;5053361;28;21032;-75
2022/02/03 07:03:33;;;;;;;15.83;11.00;;;;;;;;;;5046906;28;20443;-77
2022/02/03 07:06:00;;;;;;;11.80;9.83;;;;;;;;;;5007071;28;20493;-75
2022/02/03 07:08:29;;;;;;;14.40;10.00;;;;;;;;;;5004441;28;20967;-77
2022/02/03 07:10:57;;;;;;;14.30;10.63;;;;;;;;;;5006724;28;20828;-77
2022/02/03 07:13:24;;;;;;;11.97;9.57;;;;;;;;;;5003855;28;20440;-76
2022/02/03 07:15:51;;;;;;;14.53;10.60;;;;;;;;;;5007222;28;20902;-77
2022/02/03 07:18:20;;;;;;;14.00;11.27;;;;;;;;;;5052849;28;20450;-79
2022/02/03 07:20:48;;;;;;;15.80;10.97;;;;;;;;;;5054477;28;20473;-78
2022/02/03 07:23:15;;;;;;;15.17;10.63;;;;;;;;;;5001512;28;20482;-77
2022/02/03 07:25:43;;;;;;;17.37;11.70;;;;;;;;;;5005603;28;20489;-77
2022/02/03 07:28:12;;;;;;;14.97;11.20;;;;;;;;;;4984871;28;21058;-77
2022/02/03 07:30:40;;;;;;;15.93;11.10;;;;;;;;;;5005257;28;21003;-77
2022/02/03 07:33:09;;;;;;;16.10;11.37;;;;;;;;;;4993841;28;20488;-77
2022/02/03 07:35:40;;;;;;;20.53;10.77;;;;;;;;;;5015275;28;20764;-77
2022/02/03 07:38:09;;;;;;;14.00;10.10;;;;;;;;;;5043477;28;20431;-75
2022/02/03 07:40:37;;;;;;;15.30;10.37;;;;;;;;;;5072134;22;20559;-77
2022/02/03 07:43:09;;;;;;;13.73;9.80;;;;;;;;;;5068201;28;20483;-77
2022/02/03 07:45:36;;;;;;;12.83;9.80;;;;;;;;;;5068178;28;20480;-77
2022/02/03 07:48:09;;;;;;;13.77;9.93;;;;;;;;;;5065934;28;20472;-76
2022/02/03 08:08:52;;;;;;;12.67;8.33;;;;;;;;;;5428275;22;20495;-81
2022/02/03 08:11:24;;;;;;;13.57;9.87;;;;;;;;;;5069262;28;20456;-76
2022/02/03 08:13:55;;;;;;;10.37;8.50;;;;;;;;;;5046471;28;20522;-77
2022/02/03 08:16:29;;;;;;;12.20;8.40;;;;;;;;;;5043743;28;20524;-77
2022/02/03 08:19:03;;;;;;;11.87;8.30;;;;;;;;;;5040952;28;21964;-76
2022/02/03 08:21:33;;;;;;;13.20;9.60;;;;;;;;;;5047972;28;20995;-76
2022/02/03 08:24:16;;;;;;;13.13;8.73;;;;;;;;;;5048920;28;20426;-76
2022/02/03 08:26:49;;;;;;;12.57;9.37;;;;;;;;;;5047383;28;20448;-78
2022/02/03 08:29:36;;;;;;;12.83;9.60;;;;;;;;;;5047870;28;20949;-78
2022/02/03 08:32:08;;;;;;;11.10;8.30;;;;;;;;;;5051002;28;20461;-78
2022/02/03 08:34:44;;;;;;;9.40;7.50;;;;;;;;;;5051082;28;20539;-78
2022/02/03 08:37:11;;;;;;;10.63;7.30;;;;;;;;;;5051462;28;20437;-78
2022/02/03 08:39:51;;;;;;;12.20;8.10;;;;;;;;;;5044372;28;21950;-77
2022/02/03 08:42:18;;;;;;;13.07;8.70;;;;;;;;;;5046162;28;20441;-78
2022/02/03 08:44:45;;;;;;;10.80;8.50;;;;;;;;;;5046147;28;20496;-76
2022/02/03 08:47:13;;;;;;;15.50;8.40;;;;;;;;;;5047314;28;20484;-77
2022/02/03 08:49:44;;;;;;;9.07;8.03;;;;;;;;;;5048703;28;20456;-77
2022/02/03 08:52:17;;;;;;;11.70;7.47;;;;;;;;;;5064591;28;20454;-76
2022/02/03 08:54:57;;;;;;;10.03;7.50;;;;;;;;;;5057939;28;20437;-74
2022/02/03 08:57:36;;;;;;;10.00;6.87;;;;;;;;;;5045047;28;20448;-76
2022/02/03 09:00:21;;;;;;;8.97;7.10;;;;;;;;;;5053376;28;20440;-75
2022/02/03 09:38:23;;;;;;;4.67;4.20;;;;;;;;;;5066935;28;20764;-76
2022/02/03 09:52:04;;;;;;;5.73;4.30;;;;;;;;;;5048349;28;20447;-76
2022/02/03 09:54:46;;;;;;;4.73;4.00;;;;;;;;;;5047635;28;20814;-76
2022/02/03 09:57:30;;;;;;;4.60;4.10;;;;;;;;;;5048922;28;20805;-75
2022/02/03 10:00:06;;;;;;;6.57;4.50;;;;;;;;;;5050504;28;20461;-75
2022/02/03 10:02:33;;;;;;;7.47;5.23;;;;;;;;;;5034461;28;20488;-76
2022/02/03 10:05:12;;;;;;;8.40;5.67;;;;;;;;;;5045701;28;20465;-77
2022/02/03 10:07:39;;;;;;;14.57;6.60;;;;;;;;;;5045480;28;20976;-77
2022/02/03 10:10:13;;;;;;;6.20;4.27;;;;;;;;;;5048624;28;20472;-77
2022/02/03 10:12:41;;;;;;;6.10;4.17;;;;;;;;;;5037013;28;20466;-75
2022/02/03 10:15:13;;;;;;;4.00;3.40;;;;;;;;;;5030460;28;20450;-76
2022/02/03 10:17:43;;;;;;;5.30;4.30;;;;;;;;;;5047612;28;20721;-76
2022/02/03 10:20:13;;;;;;;4.40;3.60;;;;;;;;;;5045324;28;20503;-75
2022/02/03 10:22:48;;;;;;;5.13;3.43;;;;;;;;;;5043668;28;20449;-76
2022/02/03 10:25:22;;;;;;;4.03;3.53;;;;;;;;;;5040416;28;20568;-75
2022/02/03 10:27:58;;;;;;;4.27;3.70;;;;;;;;;;5032497;28;20799;-75
2022/02/03 10:30:33;;;;;;;6.60;4.33;;;;;;;;;;5038310;28;20457;-76
2022/02/03 10:33:00;;;;;;;3.67;3.20;;;;;;;;;;5043071;28;20456;-76
2022/02/03 10:35:33;;;;;;;4.70;3.40;;;;;;;;;;5050672;28;20465;-77
2022/02/03 10:38:18;;;;;;;3.00;2.43;;;;;;;;;;5049963;28;20461;-76
2022/02/03 10:41:09;;;;;;;3.87;3.03;;;;;;;;;;5051177;28;20473;-78
2022/02/03 10:43:57;;;;;;;3.47;2.90;;;;;;;;;;5047400;28;20834;-76
2022/02/03 10:52:17;;;;;;;8.13;3.13;;;;;;;;;;5048429;28;20558;-76
2022/02/03 10:55:06;;;;;;;3.70;2.40;;;;;;;;;;5047803;28;20457;-76
2022/02/03 11:03:24;;;;;;;6.13;3.13;;;;;;;;;;5128052;27;20438;-81
2022/02/03 11:06:07;;;;;;;4.53;2.60;;;;;;;;;;5095026;28;20533;-76
2022/02/03 11:08:44;;;;;;;4.60;3.17;;;;;;;;;;5093450;28;20958;-75
2022/02/03 11:11:17;;;;;;;10.37;4.13;;;;;;;;;;5088571;28;20504;-75
2022/02/03 11:13:44;;;;;;;11.30;3.73;;;;;;;;;;5092018;28;20526;-75
2022/02/03 11:16:14;;;;;;;6.63;4.57;;;;;;;;;;5093034;28;20498;-75
2022/02/03 11:18:42;;;;;;;6.80;4.07;;;;;;;;;;5090929;28;20489;-75
2022/02/03 11:21:09;;;;;;;5.07;3.80;;;;;;;;;;5094547;28;20481;-77
2022/02/03 11:23:46;;;;;;;5.20;3.60;;;;;;;;;;5099984;28;20460;-74
2022/02/03 11:26:22;;;;;;;4.10;3.70;;;;;;;;;;5092284;28;20468;-75
2022/02/03 11:34:52;;;;;;;6.97;3.77;;;;;;;;;;5098399;28;20778;-76
2022/02/03 11:43:18;;;;;;;6.73;3.83;;;;;;;;;;5084968;28;20999;-75
2022/02/03 11:45:58;;;;;;;4.40;3.27;;;;;;;;;;5099455;28;20427;-76
2022/02/03 11:54:46;;;;;;;5.10;3.60;;;;;;;;;;5084287;28;20464;-77
2022/02/03 12:02:51;;;;;;;4.23;3.70;;;;;;;;;;5097207;28;20435;-76
2022/02/03 12:11:35;;;;;;;4.33;3.93;;;;;;;;;;5056042;28;20552;-77
2022/02/03 12:14:23;;;;;;;4.53;4.13;;;;;;;;;;5060082;28;20482;-77
2022/02/03 12:16:59;;;;;;;7.50;4.83;;;;;;;;;;5065591;28;20503;-76
2022/02/03 12:19:35;;;;;;;5.23;4.20;;;;;;;;;;5071544;28;21093;-78
2022/02/03 12:22:10;;;;;;;4.47;3.93;;;;;;;;;;5082570;28;20446;-76
2022/02/03 12:24:47;;;;;;;5.07;4.10;;;;;;;;;;5084894;28;20451;-77
2022/02/03 12:27:26;;;;;;;4.03;3.63;;;;;;;;;;5084130;28;21033;-77
2022/02/03 12:30:00;;;;;;;8.70;4.67;;;;;;;;;;5067595;28;20479;-78
2022/02/03 12:32:43;;;;;;;8.37;4.90;;;;;;;;;;5069168;28;20440;-76
2022/02/03 12:38:20;;;;;;;6.20;4.13;;;;;;;;;;5071803;28;21076;-78
2022/02/03 12:40:54;;;;;;;7.27;4.23;;;;;;;;;;5073351;28;20567;-82
2022/02/03 12:43:31;;;;;;;4.23;3.80;;;;;;;;;;5085203;28;20436;-83
2022/02/03 12:45:59;;;;;;;5.47;3.97;;;;;;;;;;5086403;28;20946;-77
2022/02/03 12:48:27;;;;;;;4.73;4.13;;;;;;;;;;5089198;28;20443;-79
2022/02/03 12:50:54;;;;;;;5.70;4.23;;;;;;;;;;5089114;28;20462;-80
2022/02/03 12:53:23;;;;;;;4.40;3.70;;;;;;;;;;5074064;28;20593;-81
2022/02/03 12:55:55;;;;;;;8.30;5.40;;;;;;;;;;5088404;28;20455;-78
2022/02/03 12:58:26;;;;;;;4.93;4.33;;;;;;;;;;5078343;28;20956;-80
2022/02/03 13:01:28;;;;;;;5.33;4.80;;;;;;;;;;5272435;22;21040;-81
2022/02/03 13:03:56;;;;;;;6.40;4.67;;;;;;;;;;5038589;28;20506;-77
2022/02/03 13:06:27;;;;;;;4.37;3.60;;;;;;;;;;5030208;28;20468;-81
2022/02/03 13:08:58;;;;;;;6.30;4.53;;;;;;;;;;5027808;28;20458;-80
2022/02/03 13:11:30;;;;;;;5.27;4.73;;;;;;;;;;5031900;28;20469;-78
2022/02/03 13:14:03;;;;;;;8.60;5.50;;;;;;;;;;5028872;28;20465;-77
2022/02/03 13:16:32;;;;;;;6.10;5.50;;;;;;;;;;5030389;28;20462;-79
2022/02/03 13:19:06;;;;;;;5.73;5.23;;;;;;;;;;5035692;28;20479;-82
2022/02/03 13:24:11;;;;;;;10.07;6.20;;;;;;;;;;5018824;28;20438;-79
2022/02/03 13:26:38;;;;;;;7.87;5.80;;;;;;;;;;5031335;28;20673;-78
2022/02/03 13:29:08;;;;;;;9.33;6.67;;;;;;;;;;5015093;28;20466;-79
2022/02/03 13:31:45;;;;;;;15.07;6.10;;;;;;;;;;5015748;28;20574;-79
2022/02/03 13:34:30;;;;;;;11.53;5.90;;;;;;;;;;5012496;28;20547;-81
2022/02/03 13:37:12;;;;;;;6.60;5.80;;;;;;;;;;5034671;28;20491;-79
2022/02/03 13:39:41;;;;;;;7.43;5.87;;;;;;;;;;5037256;28;20485;-81
2022/02/03 13:42:10;;;;;;;6.20;5.60;;;;;;;;;;5029161;28;20458;-82
2022/02/03 13:44:38;;;;;;;7.13;6.37;;;;;;;;;;5020911;28;20966;-78
2022/02/03 13:47:20;;;;;;;7.80;6.33;;;;;;;;;;5013721;28;20488;-80
2022/02/03 13:50:00;;;;;;;10.23;5.20;;;;;;;;;;5028807;28;20584;-84
2022/02/03 13:52:32;;;;;;;7.57;5.47;;;;;;;;;;5032655;28;20462;-79
2022/02/03 14:14:50;;;;;;;8.03;5.90;;;;;;;;;;5031521;28;20464;-79
2022/02/03 14:20:23;;;;;;;6.00;5.10;;;;;;;;;;5011928;28;20620;-76
2022/02/03 14:23:23;;;;;;;6.20;4.70;;;;;;;;;;5030542;28;20446;-78
2022/02/03 14:28:32;;;;;;;7.80;6.43;;;;;;;;;;5030052;28;20790;-80
2022/02/03 14:31:04;;;;;;;9.80;6.37;;;;;;;;;;5036439;28;20512;-84
2022/02/03 14:33:34;;;;;;;9.20;6.53;;;;;;;;;;5041755;28;21059;-79
2022/02/03 14:36:06;;;;;;;8.57;6.80;;;;;;;;;;5049545;28;20468;-78
2022/02/03 14:38:40;;;;;;;6.53;5.30;;;;;;;;;;5050113;28;20457;-79
2022/02/03 14:41:13;;;;;;;7.90;5.63;;;;;;;;;;5050570;28;21008;-78
2022/02/03 14:43:42;;;;;;;13.23;5.60;;;;;;;;;;5045780;28;20890;-77
2022/02/03 14:46:13;;;;;;;5.60;4.33;;;;;;;;;;5034151;28;20947;-78
2022/02/03 14:48:42;;;;;;;8.93;4.70;;;;;;;;;;5037914;28;20445;-79
2022/02/03 14:51:11;;;;;;;8.00;6.67;;;;;;;;;;5047911;28;20461;-81
2022/02/03 14:53:51;;;;;;;6.10;4.90;;;;;;;;;;5049702;28;20926;-79
2022/02/03 14:59:00;;;;;;;6.70;5.40;;;;;;;;;;5029489;28;20429;-78
2022/02/03 15:01:28;;;;;;;5.17;4.40;;;;;;;;;;5028600;28;20496;-78
2022/02/03 15:03:58;;;;;;;7.60;5.60;;;;;;;;;;5017688;28;20936;-78
2022/02/03 15:06:27;;;;;;;6.80;5.10;;;;;;;;;;5036952;28;20449;-80
2022/02/03 15:09:09;;;;;;;6.53;5.33;;;;;;;;;;5043607;28;20449;-77
2022/02/03 15:11:54;;;;;;;5.83;4.67;;;;;;;;;;5025180;28;20453;-77
2022/02/03 15:14:23;;;;;;;5.97;4.77;;;;;;;;;;5020171;28;20439;-78
2022/02/03 15:16:50;;;;;;;5.30;4.27;;;;;;;;;;5023879;28;20461;-78
2022/02/03 15:19:17;;;;;;;6.57;3.80;;;;;;;;;;5009679;28;20470;-78
2022/02/03 15:21:44;;;;;;;6.67;5.00;;;;;;;;;;5013789;28;20455;-79
2022/02/03 15:24:11;;;;;;;12.17;6.67;;;;;;;;;;5027350;28;20805;-78
2022/02/03 15:26:39;;;;;;;7.87;5.20;;;;;;;;;;5035091;28;20815;-75
2022/02/03 15:29:06;;;;;;;7.83;5.50;;;;;;;;;;5036814;28;21200;-77
2022/02/03 15:31:35;;;;;;;9.07;5.50;;;;;;;;;;5029840;28;20485;-78
2022/02/03 15:34:09;;;;;;;5.13;4.40;;;;;;;;;;5029775;28;20469;-78
2022/02/03 15:36:37;;;;;;;5.20;4.17;;;;;;;;;;5012828;28;20446;-79
2022/02/03 15:39:08;;;;;;;7.73;4.43;;;;;;;;;;5027660;28;20454;-77
2022/02/03 15:41:36;;;;;;;6.97;4.23;;;;;;;;;;5012221;28;20494;-78
2022/02/03 15:44:03;;;;;;;11.40;3.97;;;;;;;;;;5031245;28;20783;-79
2022/02/03 15:46:33;;;;;;;5.90;4.00;;;;;;;;;;5033625;28;20446;-78
2022/02/03 15:49:11;;;;;;;5.70;4.60;;;;;;;;;;5035562;28;20982;-78
2022/02/03 15:57:17;;;;;;;4.87;4.20;;;;;;;;;;5031517;28;20484;-79
2022/02/03 16:02:41;;;;;;;5.37;4.87;;;;;;;;;;5030597;28;20813;-77
2022/02/03 16:18:36;;;;;;;8.23;5.03;;;;;;;;;;5024301;28;20496;-81
2022/02/03 16:21:14;;;;;;;7.17;4.93;;;;;;;;;;5030200;28;20805;-80
2022/02/03 16:26:46;;;;;;;8.47;4.60;;;;;;;;;;5032791;28;21018;-80
2022/02/03 16:50:58;;;;;;;5.37;4.40;;;;;;;;;;5013294;28;20450;-81
2022/02/03 16:53:26;;;;;;;5.23;4.07;;;;;;;;;;5006046;28;20451;-81
2022/02/03 16:55:56;;;;;;;5.37;4.30;;;;;;;;;;5023956;28;20434;-79
2022/02/03 16:58:24;;;;;;;7.67;5.53;;;;;;;;;;5025695;28;20467;-80
2022/02/03 17:00:51;;;;;;;7.73;5.07;;;;;;;;;;5038738;28;20485;-80
2022/02/03 17:03:18;;;;;;;10.60;5.07;;;;;;;;;;5036478;28;20472;-78
2022/02/03 17:05:46;;;;;;;10.07;4.87;;;;;;;;;;5029800;28;20442;-79
2022/02/03 17:08:13;;;;;;;7.37;4.60;;;;;;;;;;5015342;28;20450;-77
2022/02/03 17:10:42;;;;;;;5.37;4.03;;;;;;;;;;5031019;28;20561;-78
2022/02/03 17:13:09;;;;;;;7.30;4.23;;;;;;;;;;5030415;28;20469;-76
2022/02/03 17:15:37;;;;;;;11.17;5.23;;;;;;;;;;5028584;28;20458;-77
2022/02/03 17:18:04;;;;;;;7.70;4.77;;;;;;;;;;5035579;28;20507;-77
2022/02/03 17:20:35;;;;;;;5.83;4.43;;;;;;;;;;5038764;28;20472;-78
2022/02/03 17:23:06;;;;;;;6.00;4.77;;;;;;;;;;5030579;28;20542;-78
2022/02/03 17:25:41;;;;;;;4.68;4.15;;;;;;;;;;5030329;28;20561;-76
2022/02/03 17:28:19;;;;;;;6.50;4.57;;;;;;;;;;5014241;28;20221;-77
2022/02/03 17:30:52;;;;;;;5.23;4.10;;;;;;;;;;5028121;28;20566;-77
2022/02/03 17:52:40;;;;;;;7.00;5.20;;;;;;;;;;5013602;28;20439;-79
2022/02/03 18:08:44;;;;;;;6.13;4.50;;;;;;;;;;5013670;28;20192;-77
2022/02/03 18:11:27;;;;;;;5.47;4.87;;;;;;;;;;5021266;28;20474;-77
2022/02/03 18:19:44;;;;;;;7.63;5.27;;;;;;;;;;5013009;28;20466;-80
2022/02/03 18:30:20;;;;;;;7.00;5.30;;;;;;;;;;5010036;28;20611;-81
2022/02/03 18:35:47;;;;;;;8.47;5.70;;;;;;;;;;5007608;28;20571;-81
2022/02/03 18:51:50;;;;;;;9.60;6.20;;;;;;;;;;5003880;28;20435;-78
2022/02/03 18:54:28;;;;;;;7.07;5.83;;;;;;;;;;5014799;28;20506;-79
2022/02/03 18:57:03;;;;;;;10.53;6.53;;;;;;;;;;5006978;28;20486;-78
2022/02/03 18:59:59;;;;;;;8.00;7.07;;;;;;;;;;5017684;28;20460;-78
2022/02/03 19:11:24;;;;;;;8.47;6.63;;;;;;;;;;4994097;28;20512;-78
2022/02/03 19:16:24;;;;;;;8.13;6.13;;;;;;;;;;5016663;28;20462;-78
2022/02/03 19:22:36;;;;;;;7.93;6.53;;;;;;;;;;5033401;28;20600;-79
2022/02/03 19:27:41;;;;;;;8.17;6.20;;;;;;;;;;5010964;28;20454;-78
2022/02/03 20:18:05;;;;;;;8.33;7.13;;;;;;;;;;4984291;28;20435;-79
2022/02/03 20:28:19;;;;;;;10.27;7.73;;;;;;;;;;4982696;28;20236;-79
2022/02/03 20:30:46;;;;;;;11.67;8.77;;;;;;;;;;4967839;28;20461;-79
2022/02/03 20:33:15;;;;;;;11.30;8.17;;;;;;;;;;4964542;28;20444;-80
2022/02/03 20:35:42;;;;;;;10.80;8.17;;;;;;;;;;4965736;28;20445;-77
2022/02/03 20:38:11;;;;;;;10.40;7.90;;;;;;;;;;4967600;28;20444;-80
2022/02/03 20:40:40;;;;;;;11.70;9.10;;;;;;;;;;4968984;28;20528;-79
2022/02/03 20:43:09;;;;;;;11.10;9.00;;;;;;;;;;4969355;28;20452;-79
2022/02/03 20:45:38;;;;;;;11.77;8.77;;;;;;;;;;4969732;28;20459;-79
2022/02/03 20:48:06;;;;;;;11.57;9.33;;;;;;;;;;4965160;28;20464;-79
2022/02/03 20:50:35;;;;;;;12.93;9.23;;;;;;;;;;4972030;28;20481;-79
2022/02/03 20:53:03;;;;;;;10.50;7.77;;;;;;;;;;4969777;28;20875;-78
2022/02/03 20:55:30;;;;;;;11.13;7.17;;;;;;;;;;4966689;28;20551;-79
2022/02/03 20:57:58;;;;;;;15.73;8.27;;;;;;;;;;4966679;28;20467;-78
2022/02/03 21:00:36;;;;;;;12.13;8.73;;;;;;;;;;4968359;28;20464;-81
2022/02/03 21:03:10;;;;;;;11.03;7.70;;;;;;;;;;4968295;28;20445;-80
2022/02/03 21:05:37;;;;;;;11.63;8.30;;;;;;;;;;4950061;29;20463;-79
2022/02/03 21:08:04;;;;;;;10.70;7.90;;;;;;;;;;4967114;28;20453;-78
2022/02/03 21:10:32;;;;;;;10.80;8.93;;;;;;;;;;4962732;28;20472;-78
2022/02/03 21:12:59;;;;;;;11.80;8.30;;;;;;;;;;4970008;28;20774;-79
2022/02/03 21:15:32;;;;;;;9.20;8.00;;;;;;;;;;4969413;28;20475;-79
2022/02/03 21:18:01;;;;;;;8.70;7.00;;;;;;;;;;4965005;28;20980;-79
2022/02/03 21:20:30;;;;;;;12.23;8.00;;;;;;;;;;4966199;28;20496;-80
2022/02/03 21:22:57;;;;;;;10.13;8.20;;;;;;;;;;4967555;28;20449;-78
2022/02/03 21:25:30;;;;;;;10.20;7.87;;;;;;;;;;4968009;28;20448;-78
2022/02/03 21:28:03;;;;;;;11.73;8.73;;;;;;;;;;4967369;28;20887;-79
2022/02/03 21:30:30;;;;;;;10.30;8.70;;;;;;;;;;4968702;28;20480;-78
2022/02/03 21:32:57;;;;;;;9.80;7.83;;;;;;;;;;4954953;28;20467;-79
2022/02/03 21:35:26;;;;;;;12.20;9.60;;;;;;;;;;4960579;28;20469;-78
2022/02/03 21:37:54;;;;;;;8.57;7.40;;;;;;;;;;4961760;28;20460;-81
2022/02/03 21:40:23;;;;;;;10.97;9.00;;;;;;;;;;4967485;28;20461;-78
2022/02/03 21:42:50;;;;;;;10.53;8.13;;;;;;;;;;4968093;28;20441;-78
2022/02/03 21:45:18;;;;;;;11.27;8.37;;;;;;;;;;4969128;28;20499;-78
2022/02/03 21:47:46;;;;;;;8.80;6.70;;;;;;;;;;4968253;28;20445;-81
2022/02/03 21:50:13;;;;;;;9.40;7.27;;;;;;;;;;4956945;28;20496;-78
2022/02/03 21:52:46;;;;;;;8.50;7.60;;;;;;;;;;4965523;28;20425;-81
2022/02/03 21:55:15;;;;;;;10.40;7.07;;;;;;;;;;4961207;28;20460;-78
2022/02/03 21:57:45;;;;;;;9.53;8.20;;;;;;;;;;4966626;28;20461;-80
2022/02/03 22:00:14;;;;;;;12.37;8.13;;;;;;;;;;4966880;28;20705;-78
2022/02/03 22:02:41;;;;;;;11.00;7.63;;;;;;;;;;4962127;28;20484;-79
2022/02/03 22:05:11;;;;;;;11.07;8.30;;;;;;;;;;4968727;28;20464;-79
2022/02/03 22:07:40;;;;;;;9.40;7.67;;;;;;;;;;4965717;28;20485;-79
2022/02/03 22:10:07;;;;;;;10.77;7.27;;;;;;;;;;4954426;28;20502;-80
2022/02/03 22:12:36;;;;;;;12.80;9.07;;;;;;;;;;4960839;28;20930;-80
2022/02/03 22:15:03;;;;;;;13.90;9.23;;;;;;;;;;4965396;28;20467;-79
2022/02/03 22:17:31;;;;;;;10.87;9.23;;;;;;;;;;4965353;28;20447;-79
2022/02/03 22:20:01;;;;;;;11.33;8.90;;;;;;;;;;4970527;28;20453;-79
2022/02/03 22:22:36;;;;;;;12.00;8.67;;;;;;;;;;4970299;28;20493;-79
2022/02/03 22:25:28;;;;;;;10.50;7.70;;;;;;;;;;4965552;28;20456;-79
2022/02/03 22:28:09;;;;;;;12.10;8.37;;;;;;;;;;4966224;28;20461;-77
2022/02/03 22:38:55;;;;;;;10.30;7.70;;;;;;;;;;4967528;28;20781;-79
2022/02/03 22:44:08;;;;;;;10.07;8.33;;;;;;;;;;4954391;28;20433;-80
2022/02/03 22:46:41;;;;;;;8.20;7.00;;;;;;;;;;4970063;28;20441;-79
2022/02/03 22:49:09;;;;;;;9.07;7.20;;;;;;;;;;4969916;28;20464;-79
2022/02/03 22:51:37;;;;;;;12.23;7.33;;;;;;;;;;4965664;28;20813;-79
2022/02/03 22:54:06;;;;;;;7.60;6.30;;;;;;;;;;4967042;28;20440;-78
2022/02/03 22:56:33;;;;;;;8.83;7.80;;;;;;;;;;4967615;28;20499;-79
2022/02/03 22:59:27;;;;;;;12.03;8.50;;;;;;;;;;4969976;28;20452;-80
2022/02/03 23:01:56;;;;;;;8.70;7.50;;;;;;;;;;4957964;28;20623;-81
2022/02/03 23:04:23;;;;;;;9.97;7.37;;;;;;;;;;4951111;28;20445;-81
2022/02/03 23:06:55;;;;;;;8.80;7.47;;;;;;;;;;4954230;28;21010;-78
2022/02/03 23:09:38;;;;;;;9.33;7.87;;;;;;;;;;4966132;28;20441;-78
2022/02/03 23:12:12;;;;;;;10.40;8.57;;;;;;;;;;4966194;28;20437;-78
2022/02/03 23:15:02;;;;;;;8.73;7.83;;;;;;;;;;4970671;28;20447;-80
2022/02/03 23:17:37;;;;;;;12.73;8.23;;;;;;;;;;4943587;28;20500;-79
2022/02/03 23:20:10;;;;;;;10.40;9.00;;;;;;;;;;4964923;28;21051;-80
2022/02/03 23:22:37;;;;;;;8.93;7.67;;;;;;;;;;4987374;28;20558;-79
2022/02/03 23:25:06;;;;;;;10.40;7.93;;;;;;;;;;4971691;28;20463;-80
2022/02/03 23:30:32;;;;;;;10.70;8.40;;;;;;;;;;5163043;27;20613;-82
2022/02/03 23:32:59;;;;;;;12.03;8.83;;;;;;;;;;5133235;27;20454;-79
2022/02/03 23:35:29;;;;;;;10.90;8.47;;;;;;;;;;5127198;27;20444;-79
2022/02/03 23:38:03;;;;;;;9.67;7.73;;;;;;;;;;5117312;27;20453;-81
2022/02/03 23:40:54;;;;;;;8.37;7.03;;;;;;;;;;5106734;28;20467;-79
2022/02/03 23:43:57;;;;;;;9.87;8.10;;;;;;;;;;5124239;27;20457;-78
2022/02/03 23:46:59;;;;;;;9.00;7.87;;;;;;;;;;5131779;27;20425;-80
